createdAt,value
2019-03-27T00:00:19.934Z,19.1
2019-03-27T00:01:09.224Z,19.1
2019-03-27T00:01:59.774Z,19.1
2019-03-27T00:02:49.910Z,19.1
2019-03-27T00:03:40.196Z,19.1
2019-03-27T00:04:29.923Z,19.1
2019-03-27T00:05:19.986Z,19.1
2019-03-27T00:06:09.780Z,19.1
2019-03-27T00:07:00.132Z,19.1
2019-03-27T00:07:49.071Z,19.1
2019-03-27T00:08:40.533Z,19.1
2019-03-27T00:09:30.356Z,19.1
2019-03-27T00:10:20.385Z,19.1
2019-03-27T00:11:10.408Z,19.1
2019-03-27T00:12:00.820Z,19.1
2019-03-27T00:12:50.912Z,19.1
2019-03-27T00:13:41.168Z,19.1
2019-03-27T00:14:30.438Z,19.1
2019-03-27T00:15:21.274Z,19.1
2019-03-27T00:16:10.515Z,19.1
2019-03-27T00:17:01.136Z,19.1
2019-03-27T00:17:51.189Z,19.1
2019-03-27T00:18:41.516Z,19.1
2019-03-27T00:19:31.408Z,19.1
2019-03-27T00:20:20.896Z,19.1
2019-03-27T00:21:11.018Z,19.1
2019-03-27T00:22:01.760Z,19.1
2019-03-27T00:22:51.638Z,19.1
2019-03-27T00:23:41.860Z,19.1
2019-03-27T00:24:31.690Z,19.1
2019-03-27T00:25:22.040Z,19.1
2019-03-27T00:26:11.520Z,19.1
2019-03-27T00:27:02.120Z,19.1
2019-03-27T00:27:51.901Z,19.1
2019-03-27T00:28:42.282Z,19.1
2019-03-27T00:29:32.385Z,19.1
2019-03-27T00:30:22.127Z,19.1
2019-03-27T00:31:15.379Z,19.1
2019-03-27T00:32:01.940Z,19.1
2019-03-27T00:32:52.547Z,19.1
2019-03-27T00:33:42.314Z,19.1
2019-03-27T00:34:32.669Z,19.1
2019-03-27T00:35:21.912Z,19.1
2019-03-27T00:36:11.954Z,19.1
2019-03-27T00:37:02.094Z,19.1
2019-03-27T00:37:52.364Z,19.1
2019-03-27T00:38:42.961Z,19.1
2019-03-27T00:39:32.224Z,19.1
2019-03-27T00:40:22.239Z,19.1
2019-03-27T00:41:13.174Z,19.1
2019-03-27T00:42:02.706Z,19.1
2019-03-27T00:42:52.989Z,19.1
2019-03-27T00:43:42.764Z,19.1
2019-03-27T00:44:32.564Z,19.1
2019-03-27T00:45:32.631Z,19.1
2019-03-27T00:46:12.662Z,19.1
2019-03-27T00:47:03.284Z,19.1
2019-03-27T00:47:53.660Z,19.1
2019-03-27T00:48:43.423Z,19
2019-03-27T00:49:33.258Z,19.1
2019-03-27T00:50:22.969Z,19.1
2019-03-27T00:51:13.943Z,19.1
2019-03-27T00:52:03.944Z,19.1
2019-03-27T00:52:53.756Z,19.1
2019-03-27T00:53:43.504Z,19.1
2019-03-27T00:54:33.265Z,19.1
2019-03-27T00:55:23.893Z,19.1
2019-03-27T00:56:13.479Z,19.1
2019-03-27T00:57:04.390Z,19.1
2019-03-27T00:57:53.807Z,19.1
2019-03-27T00:58:43.890Z,19.1
2019-03-27T00:59:34.091Z,19.1
2019-03-27T01:00:24.073Z,19.1
2019-03-27T01:01:14.059Z,19.1
2019-03-27T01:02:03.864Z,19.1
2019-03-27T01:02:54.158Z,19.1
2019-03-27T01:03:44.202Z,19.1
2019-03-27T01:04:34.048Z,19.1
2019-03-27T01:05:24.358Z,19.1
2019-03-27T01:06:14.713Z,19.1
2019-03-27T01:07:05.110Z,19.1
2019-03-27T01:07:54.825Z,19.1
2019-03-27T01:08:45.153Z,19.1
2019-03-27T01:09:34.674Z,19.1
2019-03-27T01:10:25.005Z,19.1
2019-03-27T01:11:15.317Z,19.1
2019-03-27T01:12:04.585Z,19.1
2019-03-27T01:12:55.162Z,19.1
2019-03-27T01:13:45.264Z,19.1
2019-03-27T01:14:35.626Z,19.1
2019-03-27T01:15:25.081Z,19.1
2019-03-27T01:16:15.512Z,19.1
2019-03-27T01:17:04.698Z,19.1
2019-03-27T01:17:55.795Z,19.1
2019-03-27T01:18:45.307Z,19.1
2019-03-27T01:19:35.437Z,19.1
2019-03-27T01:20:25.429Z,19.1
2019-03-27T01:21:15.764Z,19.1
2019-03-27T01:22:05.597Z,19
2019-03-27T01:22:56.156Z,19
2019-03-27T01:23:46.337Z,19.1
2019-03-27T01:24:35.742Z,19
2019-03-27T01:25:26.094Z,19.1
2019-03-27T01:26:16.416Z,19.1
2019-03-27T01:27:06.259Z,19.1
2019-03-27T01:27:55.855Z,19.1
2019-03-27T01:28:46.315Z,19.1
2019-03-27T01:29:36.429Z,19.1
2019-03-27T01:30:26.741Z,19.1
2019-03-27T01:31:16.493Z,19.1
2019-03-27T01:32:06.274Z,19.1
2019-03-27T01:32:56.886Z,19.1
2019-03-27T01:33:46.123Z,19.1
2019-03-27T01:34:37.061Z,19.1
2019-03-27T01:35:27.093Z,19.1
2019-03-27T01:36:16.607Z,19.1
2019-03-27T01:37:07.181Z,19.1
2019-03-27T01:37:56.421Z,19.1
2019-03-27T01:38:45.641Z,19.1
2019-03-27T01:39:37.136Z,19.1
2019-03-27T01:40:26.710Z,19.1
2019-03-27T01:41:17.010Z,19.1
2019-03-27T01:42:07.540Z,19.1
2019-03-27T01:42:57.335Z,19.1
2019-03-27T01:43:47.130Z,19.1
2019-03-27T01:44:37.734Z,19.1
2019-03-27T01:45:27.247Z,19.1
2019-03-27T01:46:17.293Z,19
2019-03-27T01:47:07.135Z,19
2019-03-27T01:47:57.960Z,19.1
2019-03-27T01:48:47.733Z,19
2019-03-27T01:49:37.822Z,19.1
2019-03-27T01:50:27.347Z,19.1
2019-03-27T01:51:18.262Z,19.1
2019-03-27T01:52:11.396Z,19
2019-03-27T01:52:57.232Z,19.1
2019-03-27T01:53:48.125Z,19.1
2019-03-27T01:54:38.469Z,19.1
2019-03-27T01:55:27.942Z,19.1
2019-03-27T01:56:18.649Z,19.1
2019-03-27T01:57:07.834Z,19.1
2019-03-27T01:57:58.137Z,19.1
2019-03-27T01:58:48.477Z,19
2019-03-27T01:59:38.607Z,19.1
2019-03-27T02:00:28.314Z,19.1
2019-03-27T02:01:18.394Z,19.1
2019-03-27T02:02:08.742Z,19
2019-03-27T02:02:58.825Z,19
2019-03-27T02:03:49.105Z,19.1
2019-03-27T02:04:39.239Z,19
2019-03-27T02:05:29.249Z,19.1
2019-03-27T02:06:19.023Z,19.1
2019-03-27T02:07:09.366Z,19
2019-03-27T02:07:59.487Z,19.1
2019-03-27T02:08:49.554Z,19.1
2019-03-27T02:09:38.437Z,19
2019-03-27T02:10:29.671Z,19
2019-03-27T02:11:19.688Z,19
2019-03-27T02:12:09.443Z,19.1
2019-03-27T02:12:59.216Z,19.1
2019-03-27T02:13:49.567Z,19.1
2019-03-27T02:14:39.679Z,19
2019-03-27T02:15:29.147Z,19
2019-03-27T02:16:19.178Z,19.1
2019-03-27T02:17:10.091Z,19.1
2019-03-27T02:17:59.591Z,19
2019-03-27T02:18:49.696Z,19
2019-03-27T02:19:39.749Z,19.1
2019-03-27T02:20:29.753Z,19.1
2019-03-27T02:21:19.578Z,19.1
2019-03-27T02:22:10.214Z,19.1
2019-03-27T02:22:59.951Z,19.1
2019-03-27T02:23:50.570Z,19.1
2019-03-27T02:24:40.618Z,19.1
2019-03-27T02:25:30.130Z,19.1
2019-03-27T02:26:20.537Z,19
2019-03-27T02:27:10.636Z,19.1
2019-03-27T02:27:59.744Z,19
2019-03-27T02:28:50.656Z,19.1
2019-03-27T02:29:40.736Z,19.1
2019-03-27T02:30:30.963Z,19
2019-03-27T02:31:20.959Z,19
2019-03-27T02:32:10.976Z,19.1
2019-03-27T02:33:01.344Z,19
2019-03-27T02:33:51.003Z,19
2019-03-27T02:34:40.609Z,19
2019-03-27T02:35:30.987Z,19
2019-03-27T02:36:21.260Z,19
2019-03-27T02:37:11.355Z,19
2019-03-27T02:38:01.433Z,19
2019-03-27T02:38:51.574Z,19
2019-03-27T02:39:41.283Z,19
2019-03-27T02:40:31.926Z,19
2019-03-27T02:41:21.762Z,19
2019-03-27T02:42:10.605Z,19.1
2019-03-27T02:43:01.775Z,19
2019-03-27T02:43:52.202Z,19
2019-03-27T02:44:42.275Z,19
2019-03-27T02:45:31.933Z,19
2019-03-27T02:46:30.875Z,19
2019-03-27T02:47:12.334Z,19
2019-03-27T02:48:02.385Z,19
2019-03-27T02:48:51.390Z,19
2019-03-27T02:49:42.684Z,19
2019-03-27T02:50:32.692Z,19
2019-03-27T02:51:22.370Z,19
2019-03-27T02:52:12.470Z,19
2019-03-27T02:53:02.862Z,19
2019-03-27T02:53:52.962Z,19
2019-03-27T02:54:42.312Z,19
2019-03-27T02:55:32.654Z,19
2019-03-27T02:56:23.039Z,19
2019-03-27T02:57:12.206Z,19
2019-03-27T02:58:01.993Z,19
2019-03-27T02:58:52.895Z,19
2019-03-27T02:59:42.939Z,19
2019-03-27T03:00:33.259Z,19
2019-03-27T03:01:22.819Z,19
2019-03-27T03:02:13.323Z,19
2019-03-27T03:03:02.364Z,19
2019-03-27T03:03:53.337Z,19
2019-03-27T03:07:23.498Z,19
2019-03-27T03:08:14.099Z,19
2019-03-27T03:09:03.973Z,19
2019-03-27T03:09:54.635Z,19
2019-03-27T03:10:49.162Z,19
2019-03-27T03:11:34.378Z,19
2019-03-27T03:12:24.511Z,19
2019-03-27T03:13:14.733Z,19
2019-03-27T03:14:04.544Z,19
2019-03-27T03:14:54.324Z,19
2019-03-27T03:15:44.658Z,19
2019-03-27T03:16:48.576Z,19
2019-03-27T03:17:24.785Z,19
2019-03-27T03:18:15.127Z,19
2019-03-27T03:19:04.990Z,19
2019-03-27T03:19:54.609Z,19
2019-03-27T03:20:44.981Z,19
2019-03-27T03:21:34.775Z,19
2019-03-27T03:22:25.204Z,19
2019-03-27T03:23:15.422Z,19
2019-03-27T03:24:05.158Z,19
2019-03-27T03:24:54.990Z,19
2019-03-27T03:25:45.116Z,19
2019-03-27T03:26:35.828Z,19
2019-03-27T03:27:25.529Z,19
2019-03-27T03:28:15.346Z,19
2019-03-27T03:29:05.341Z,19
2019-03-27T03:29:56.038Z,19
2019-03-27T03:30:45.938Z,19
2019-03-27T03:31:36.280Z,19
2019-03-27T03:32:26.018Z,19
2019-03-27T03:33:16.053Z,19
2019-03-27T03:34:06.685Z,19
2019-03-27T03:34:55.721Z,19
2019-03-27T03:35:46.067Z,19
2019-03-27T03:36:36.259Z,19
2019-03-27T03:37:26.503Z,19
2019-03-27T03:38:16.384Z,19
2019-03-27T03:39:06.300Z,18.9
2019-03-27T03:39:55.894Z,19
2019-03-27T03:40:46.701Z,19
2019-03-27T03:41:36.767Z,19
2019-03-27T03:42:26.323Z,19
2019-03-27T03:43:16.610Z,19
2019-03-27T03:44:06.716Z,19
2019-03-27T03:44:57.027Z,19
2019-03-27T03:45:46.807Z,19
2019-03-27T03:46:36.025Z,19
2019-03-27T03:47:27.202Z,19
2019-03-27T03:48:17.054Z,19
2019-03-27T03:49:07.050Z,19
2019-03-27T03:49:57.545Z,19
2019-03-27T03:50:47.721Z,19
2019-03-27T03:51:37.496Z,19
2019-03-27T03:52:27.017Z,19
2019-03-27T03:53:17.538Z,19
2019-03-27T03:54:07.497Z,19
2019-03-27T03:54:57.860Z,19
2019-03-27T03:55:48.049Z,19
2019-03-27T03:56:37.576Z,19
2019-03-27T03:57:27.926Z,19
2019-03-27T03:58:18.213Z,19
2019-03-27T03:59:07.811Z,19
2019-03-27T03:59:57.886Z,19
2019-03-27T04:00:47.678Z,19
2019-03-27T04:01:38.286Z,19
2019-03-27T04:02:27.631Z,19
2019-03-27T04:03:18.133Z,19
2019-03-27T04:04:08.189Z,19
2019-03-27T04:04:58.460Z,19
2019-03-27T04:05:48.366Z,19
2019-03-27T04:06:38.333Z,19
2019-03-27T04:07:28.076Z,19
2019-03-27T04:08:18.518Z,19
2019-03-27T04:09:08.286Z,19
2019-03-27T04:09:58.730Z,19
2019-03-27T04:10:49.198Z,19
2019-03-27T04:11:38.452Z,19
2019-03-27T04:12:28.148Z,19
2019-03-27T04:13:18.958Z,19
2019-03-27T04:14:08.893Z,19
2019-03-27T04:14:58.905Z,19
2019-03-27T04:15:48.998Z,19
2019-03-27T04:16:39.117Z,19
2019-03-27T04:17:29.342Z,19
2019-03-27T04:18:19.190Z,19
2019-03-27T04:19:08.679Z,19
2019-03-27T04:19:59.284Z,19
2019-03-27T04:20:49.409Z,19
2019-03-27T04:21:39.700Z,19
2019-03-27T04:22:29.190Z,19
2019-03-27T04:23:19.563Z,19
2019-03-27T04:24:09.274Z,19
2019-03-27T04:24:59.871Z,19
2019-03-27T04:26:16.383Z,19
2019-03-27T04:26:39.581Z,19
2019-03-27T04:27:29.850Z,19
2019-03-27T04:28:20.181Z,19
2019-03-27T04:29:10.206Z,19
2019-03-27T04:29:59.710Z,19
2019-03-27T04:30:50.099Z,19
2019-03-27T04:31:40.384Z,19
2019-03-27T04:32:30.462Z,19
2019-03-27T04:33:20.254Z,19
2019-03-27T04:34:09.978Z,19
2019-03-27T04:34:59.805Z,18.9
2019-03-27T04:35:50.674Z,19
2019-03-27T04:36:40.461Z,19
2019-03-27T04:37:30.523Z,19
2019-03-27T04:38:20.601Z,18.9
2019-03-27T04:39:10.621Z,19
2019-03-27T04:40:00.929Z,19
2019-03-27T04:40:50.547Z,19
2019-03-27T04:41:40.283Z,18.9
2019-03-27T04:42:30.361Z,19
2019-03-27T04:43:21.259Z,19
2019-03-27T04:44:11.278Z,19
2019-03-27T04:45:01.354Z,19
2019-03-27T04:45:51.090Z,18.9
2019-03-27T04:46:40.860Z,19
2019-03-27T04:47:38.194Z,19
2019-03-27T04:48:21.015Z,18.9
2019-03-27T04:49:13.713Z,18.9
2019-03-27T04:50:01.435Z,19
2019-03-27T04:50:51.940Z,18.9
2019-03-27T04:51:41.277Z,18.9
2019-03-27T04:52:31.541Z,19
2019-03-27T04:53:21.629Z,19
2019-03-27T04:54:11.655Z,19
2019-03-27T04:55:02.311Z,19
2019-03-27T04:55:51.500Z,19
2019-03-27T04:56:42.127Z,19
2019-03-27T04:57:31.960Z,18.9
2019-03-27T04:58:22.354Z,19
2019-03-27T04:59:12.379Z,19
2019-03-27T05:00:01.800Z,19
2019-03-27T05:00:52.245Z,19
2019-03-27T05:01:41.760Z,18.9
2019-03-27T05:02:32.568Z,19
2019-03-27T05:03:22.084Z,19
2019-03-27T05:04:12.729Z,19
2019-03-27T05:05:02.653Z,19
2019-03-27T05:05:51.712Z,18.9
2019-03-27T05:06:42.315Z,19
2019-03-27T05:07:32.635Z,18.9
2019-03-27T05:08:21.957Z,18.9
2019-03-27T05:09:13.057Z,19
2019-03-27T05:10:02.912Z,19
2019-03-27T05:10:52.409Z,18.9
2019-03-27T05:11:42.677Z,18.9
2019-03-27T05:12:33.358Z,18.9
2019-03-27T05:13:22.791Z,19
2019-03-27T05:14:13.119Z,19
2019-03-27T05:15:03.153Z,18.9
2019-03-27T05:15:53.583Z,19
2019-03-27T05:16:42.480Z,19
2019-03-27T05:17:47.361Z,18.9
2019-03-27T05:18:22.846Z,18.9
2019-03-27T05:19:13.523Z,18.9
2019-03-27T05:20:03.248Z,18.9
2019-03-27T05:20:52.242Z,18.9
2019-03-27T05:21:43.919Z,18.9
2019-03-27T05:22:33.482Z,18.9
2019-03-27T05:23:23.861Z,19
2019-03-27T05:24:13.831Z,18.9
2019-03-27T05:25:03.700Z,18.9
2019-03-27T05:25:53.963Z,19
2019-03-27T05:26:44.001Z,19
2019-03-27T05:27:37.734Z,19
2019-03-27T05:28:24.401Z,19.1
2019-03-27T05:29:14.198Z,19.1
2019-03-27T05:30:04.093Z,19.1
2019-03-27T05:30:54.623Z,19.1
2019-03-27T05:31:44.116Z,19.1
2019-03-27T05:32:34.420Z,19.1
2019-03-27T05:33:24.768Z,19.1
2019-03-27T05:34:14.558Z,19.1
2019-03-27T05:35:04.810Z,19.1
2019-03-27T05:35:54.997Z,19.1
2019-03-27T05:36:44.764Z,19.1
2019-03-27T05:37:35.056Z,19.1
2019-03-27T05:38:24.003Z,19
2019-03-27T05:39:18.541Z,19.1
2019-03-27T05:40:05.102Z,19.1
2019-03-27T05:40:55.308Z,19.1
2019-03-27T05:41:45.382Z,19
2019-03-27T05:42:35.139Z,19
2019-03-27T05:43:25.485Z,19
2019-03-27T05:44:15.091Z,19
2019-03-27T05:45:04.992Z,19
2019-03-27T05:45:55.418Z,19
2019-03-27T05:46:45.797Z,19
2019-03-27T05:47:35.297Z,19
2019-03-27T05:48:25.927Z,19
2019-03-27T05:49:15.649Z,19
2019-03-27T05:50:05.697Z,19
2019-03-27T05:50:55.512Z,19.1
2019-03-27T05:51:45.914Z,19.1
2019-03-27T05:52:35.622Z,19.1
2019-03-27T05:53:26.226Z,19.1
2019-03-27T05:54:15.439Z,19
2019-03-27T05:55:05.535Z,19
2019-03-27T05:55:55.841Z,19
2019-03-27T05:56:46.269Z,19
2019-03-27T05:57:36.514Z,18.3
2019-03-27T05:58:26.656Z,16.8
2019-03-27T05:59:16.673Z,15.8
2019-03-27T06:00:06.769Z,16.1
2019-03-27T06:00:56.479Z,18.1
2019-03-27T06:01:46.619Z,19.5
2019-03-27T06:02:36.610Z,19.9
2019-03-27T06:03:26.731Z,19.5
2019-03-27T06:05:23.833Z,18.2
2019-03-27T06:06:14.198Z,17.9
2019-03-27T06:07:03.973Z,18
2019-03-27T06:07:54.301Z,18.3
2019-03-27T06:08:43.541Z,18.6
2019-03-27T06:09:33.970Z,18.9
2019-03-27T06:10:23.658Z,19.1
2019-03-27T06:11:14.023Z,19.2
2019-03-27T06:12:03.781Z,19.2
2019-03-27T06:12:54.676Z,19.3
2019-03-27T06:13:44.813Z,19.3
2019-03-27T06:14:33.956Z,19.3
2019-03-27T06:15:24.227Z,19.5
2019-03-27T06:16:29.641Z,19.6
2019-03-27T06:17:04.788Z,19.8
2019-03-27T06:17:54.817Z,19.9
2019-03-27T06:18:44.838Z,20.1
2019-03-27T06:19:35.140Z,20.1
2019-03-27T06:20:24.970Z,20.2
2019-03-27T06:21:14.420Z,20.3
2019-03-27T06:22:04.479Z,20.4
2019-03-27T06:22:54.286Z,20.6
2019-03-27T06:23:45.527Z,20.7
2019-03-27T06:24:35.242Z,20.8
2019-03-27T06:25:25.436Z,20.9
2019-03-27T06:26:14.638Z,21.1
2019-03-27T06:27:05.152Z,21.2
2019-03-27T06:27:55.075Z,21.3
2019-03-27T06:28:45.550Z,21.4
2019-03-27T06:29:35.550Z,21.5
2019-03-27T06:30:25.964Z,21.7
2019-03-27T06:31:15.735Z,21.8
2019-03-27T06:32:05.537Z,21.9
2019-03-27T06:32:55.545Z,22.1
2019-03-27T06:33:45.594Z,22.2
2019-03-27T06:34:50.631Z,22.2
2019-03-27T06:35:25.779Z,22.1
2019-03-27T06:36:15.804Z,22.3
2019-03-27T06:37:05.634Z,22.4
2019-03-27T06:37:56.187Z,22.5
2019-03-27T06:38:45.952Z,22.7
2019-03-27T06:39:36.294Z,22.8
2019-03-27T06:40:26.394Z,22.9
2019-03-27T06:41:16.746Z,23.1
2019-03-27T06:42:05.952Z,23.3
2019-03-27T06:42:56.856Z,23.4
2019-03-27T06:43:46.882Z,23.4
2019-03-27T06:44:36.375Z,23.5
2019-03-27T06:45:26.977Z,23.6
2019-03-27T06:46:15.946Z,23.8
2019-03-27T06:47:07.188Z,23.9
2019-03-27T06:47:56.609Z,24.1
2019-03-27T06:48:47.231Z,24.3
2019-03-27T06:49:37.360Z,24.4
2019-03-27T06:50:27.423Z,24.6
2019-03-27T06:51:17.366Z,24.8
2019-03-27T06:52:07.183Z,24.9
2019-03-27T06:52:57.254Z,25
2019-03-27T06:53:47.298Z,25.2
2019-03-27T06:54:37.631Z,25.3
2019-03-27T06:55:27.723Z,25.5
2019-03-27T06:56:16.723Z,25.6
2019-03-27T06:57:07.939Z,25.8
2019-03-27T06:57:58.140Z,25.9
2019-03-27T06:59:00.475Z,26
2019-03-27T06:59:38.003Z,26.2
2019-03-27T07:00:27.518Z,26.3
2019-03-27T07:01:18.140Z,26.4
2019-03-27T07:02:08.013Z,26.6
2019-03-27T07:02:57.958Z,26.7
2019-03-27T07:05:55.259Z,27.1
2019-03-27T07:06:58.508Z,27.4
2019-03-27T07:07:17.048Z,27.6
2019-03-27T07:08:06.338Z,27.6
2019-03-27T07:08:57.425Z,27.8
2019-03-27T07:09:48.005Z,27.9
2019-03-27T07:10:36.481Z,28
2019-03-27T07:11:26.799Z,28.2
2019-03-27T07:12:26.630Z,28.3
2019-03-27T07:13:06.469Z,28.4
2019-03-27T07:13:57.248Z,28.6
2019-03-27T07:14:47.312Z,28.8
2019-03-27T07:15:40.737Z,28.9
2019-03-27T07:16:26.945Z,29.1
2019-03-27T07:17:17.501Z,29.2
2019-03-27T07:18:07.552Z,29.4
2019-03-27T07:18:57.859Z,29.4
2019-03-27T07:20:02.810Z,29.5
2019-03-27T07:20:52.104Z,29.4
2019-03-27T07:21:28.049Z,29.3
2019-03-27T07:22:17.792Z,29.3
2019-03-27T07:23:08.187Z,29.3
2019-03-27T07:23:57.959Z,29.6
2019-03-27T07:24:47.513Z,29.8
2019-03-27T07:25:38.072Z,29.9
2019-03-27T07:26:27.587Z,30.1
2019-03-27T07:27:17.909Z,30.3
2019-03-27T07:28:07.749Z,30.5
2019-03-27T07:28:57.499Z,30.6
2019-03-27T07:29:48.142Z,30.8
2019-03-27T07:30:38.455Z,30.9
2019-03-27T07:31:28.836Z,31.1
2019-03-27T07:32:18.589Z,31.3
2019-03-27T07:33:08.379Z,31.4
2019-03-27T07:34:48.569Z,31.8
2019-03-27T07:35:38.824Z,31.8
2019-03-27T07:36:28.661Z,31.9
2019-03-27T07:37:18.924Z,32.1
2019-03-27T07:38:08.455Z,32.3
2019-03-27T07:39:14.013Z,32.4
2019-03-27T07:39:49.043Z,32.6
2019-03-27T07:40:39.452Z,32.8
2019-03-27T07:41:29.178Z,32.9
2019-03-27T07:42:19.298Z,32.9
2019-03-27T07:43:09.648Z,32.9
2019-03-27T07:43:59.111Z,32.9
2019-03-27T07:44:49.776Z,33.1
2019-03-27T07:45:39.255Z,33.3
2019-03-27T07:46:29.330Z,33.3
2019-03-27T07:47:19.087Z,33.2
2019-03-27T07:48:09.986Z,33
2019-03-27T07:49:00.133Z,32.8
2019-03-27T07:49:49.833Z,32.8
2019-03-27T07:50:40.021Z,32.9
2019-03-27T07:51:29.935Z,33.2
2019-03-27T07:52:20.330Z,33.5
2019-03-27T07:53:09.795Z,33.8
2019-03-27T07:54:00.427Z,33.8
2019-03-27T07:54:50.554Z,33.6
2019-03-27T07:55:40.338Z,33.4
2019-03-27T07:56:30.617Z,33.3
2019-03-27T07:57:20.391Z,33.3
2019-03-27T07:58:10.714Z,33.4
2019-03-27T07:59:03.365Z,33.6
2019-03-27T07:59:49.758Z,33.9
2019-03-27T08:00:40.998Z,34.1
2019-03-27T08:01:30.679Z,34.4
2019-03-27T08:02:20.996Z,34.6
2019-03-27T08:03:11.096Z,34.9
2019-03-27T08:04:00.288Z,35.1
2019-03-27T08:04:49.258Z,35.3
2019-03-27T08:05:40.963Z,35.3
2019-03-27T08:06:30.736Z,35.1
2019-03-27T08:07:32.388Z,34.8
2019-03-27T08:08:11.172Z,34.4
2019-03-27T08:09:00.679Z,34.2
2019-03-27T08:09:51.625Z,34.1
2019-03-27T08:10:40.775Z,34.1
2019-03-27T08:11:33.553Z,34.4
2019-03-27T08:12:21.476Z,34.9
2019-03-27T08:13:10.545Z,35.2
2019-03-27T08:14:01.360Z,35.4
2019-03-27T08:14:51.511Z,35.6
2019-03-27T08:15:45.090Z,35.8
2019-03-27T08:16:31.285Z,35.9
2019-03-27T08:17:21.069Z,36.1
2019-03-27T08:18:10.850Z,36.3
2019-03-27T08:19:13.639Z,36.4
2019-03-27T08:19:51.720Z,36.4
2019-03-27T08:20:42.059Z,36.3
2019-03-27T08:21:35.962Z,36.1
2019-03-27T08:22:21.937Z,35.9
2019-03-27T08:23:12.240Z,35.8
2019-03-27T08:24:02.308Z,35.7
2019-03-27T08:24:52.090Z,35.7
2019-03-27T08:25:42.205Z,35.9
2019-03-27T08:26:32.842Z,36.1
2019-03-27T08:27:22.539Z,36.4
2019-03-27T08:28:12.422Z,36.6
2019-03-27T08:29:02.982Z,36.8
2019-03-27T08:29:52.474Z,37
2019-03-27T08:30:43.069Z,37.2
2019-03-27T08:31:32.572Z,37.4
2019-03-27T08:32:23.249Z,37.5
2019-03-27T08:33:13.249Z,37.7
2019-03-27T08:34:03.344Z,37.8
2019-03-27T08:34:53.094Z,37.9
2019-03-27T08:35:43.132Z,38.1
2019-03-27T08:36:33.581Z,38.2
2019-03-27T08:37:23.264Z,38.4
2019-03-27T08:38:16.535Z,38.6
2019-03-27T08:39:03.342Z,38.7
2019-03-27T08:39:53.247Z,38.8
2019-03-27T08:40:43.317Z,38.9
2019-03-27T08:41:33.843Z,39
2019-03-27T08:42:23.103Z,39.1
2019-03-27T08:43:30.364Z,39.2
2019-03-27T08:44:03.327Z,39.4
2019-03-27T08:44:54.136Z,39.4
2019-03-27T08:45:44.155Z,39.7
2019-03-27T08:46:34.029Z,39.8
2019-03-27T08:47:24.001Z,39.9
2019-03-27T08:48:13.528Z,40.1
2019-03-27T08:49:04.225Z,40.2
2019-03-27T08:50:09.084Z,40.3
2019-03-27T08:50:44.287Z,40.3
2019-03-27T08:51:34.302Z,40.3
2019-03-27T08:52:23.802Z,40.3
2019-03-27T08:53:14.684Z,40.1
2019-03-27T08:54:04.487Z,39.9
2019-03-27T08:54:54.844Z,39.8
2019-03-27T08:55:44.864Z,39.6
2019-03-27T08:56:34.666Z,39.5
2019-03-27T08:57:24.762Z,39.4
2019-03-27T08:58:15.094Z,39.4
2019-03-27T08:59:04.596Z,39.4
2019-03-27T08:59:54.882Z,39.4
2019-03-27T09:00:44.951Z,39.3
2019-03-27T09:01:34.063Z,39.2
2019-03-27T09:02:24.871Z,39.1
2019-03-27T09:03:15.118Z,39.1
2019-03-27T09:04:04.734Z,39.3
2019-03-27T09:04:55.113Z,39.6
2019-03-27T09:05:44.818Z,39.8
2019-03-27T09:06:38.972Z,39.8
2019-03-27T09:07:24.731Z,39.8
2019-03-27T09:08:15.606Z,39.8
2019-03-27T09:09:20.233Z,39.6
2019-03-27T09:09:55.618Z,39.6
2019-03-27T09:10:45.954Z,39.6
2019-03-27T09:11:35.245Z,39.9
2019-03-27T09:12:25.811Z,40.3
2019-03-27T09:13:15.313Z,40.6
2019-03-27T09:14:06.208Z,40.9
2019-03-27T09:14:55.983Z,41.2
2019-03-27T09:15:46.055Z,41.4
2019-03-27T09:16:36.118Z,41.7
2019-03-27T09:17:26.130Z,41.8
2019-03-27T09:18:19.963Z,41.9
2019-03-27T09:19:06.564Z,42.1
2019-03-27T09:19:56.690Z,42.3
2019-03-27T09:20:46.415Z,42.4
2019-03-27T09:21:36.475Z,42.6
2019-03-27T09:22:26.560Z,42.7
2019-03-27T09:23:17.106Z,42.6
2019-03-27T09:24:06.688Z,42.4
2019-03-27T09:24:56.162Z,42.4
2019-03-27T09:25:46.482Z,42.5
2019-03-27T09:26:37.073Z,42.7
2019-03-27T09:27:26.842Z,42.9
2019-03-27T09:28:17.010Z,43.3
2019-03-27T09:29:10.346Z,43.4
2019-03-27T09:29:57.342Z,43.6
2019-03-27T09:30:47.840Z,43.6
2019-03-27T09:31:50.552Z,43.6
2019-03-27T09:32:27.234Z,43.6
2019-03-27T09:33:17.644Z,43.6
2019-03-27T09:34:07.086Z,43.8
2019-03-27T09:34:57.137Z,43.9
2019-03-27T09:35:48.154Z,44.1
2019-03-27T09:36:37.939Z,44.2
2019-03-27T09:37:27.872Z,44.3
2019-03-27T09:38:18.162Z,44.5
2019-03-27T09:39:07.446Z,44.6
2019-03-27T09:39:57.777Z,44.7
2019-03-27T09:40:47.564Z,44.8
2019-03-27T09:41:37.914Z,44.8
2019-03-27T09:42:28.001Z,44.9
2019-03-27T09:43:17.484Z,45
2019-03-27T09:44:08.477Z,45.2
2019-03-27T09:44:58.637Z,45.3
2019-03-27T09:45:48.453Z,45.4
2019-03-27T09:46:38.000Z,45.5
2019-03-27T09:47:28.316Z,45.6
2019-03-27T09:48:18.648Z,45.7
2019-03-27T09:49:08.699Z,45.8
2019-03-27T09:49:57.951Z,45.9
2019-03-27T09:50:48.571Z,46
2019-03-27T09:51:38.626Z,46.1
2019-03-27T09:52:28.723Z,46.2
2019-03-27T09:53:18.740Z,46.3
2019-03-27T09:54:08.829Z,46.4
2019-03-27T09:54:58.584Z,46.6
2019-03-27T09:55:48.671Z,46.6
2019-03-27T09:56:38.979Z,46.7
2019-03-27T09:57:29.069Z,46.8
2019-03-27T09:58:19.393Z,46.9
2019-03-27T09:59:11.340Z,46.9
2019-03-27T09:59:58.528Z,47.1
2019-03-27T10:00:49.998Z,47.2
2019-03-27T10:01:39.418Z,47.3
2019-03-27T10:02:29.383Z,47.4
2019-03-27T10:03:19.216Z,47.5
2019-03-27T10:04:09.238Z,47.6
2019-03-27T10:06:23.990Z,47.9
2019-03-27T10:07:14.135Z,48
2019-03-27T10:08:03.780Z,48.1
2019-03-27T10:08:53.631Z,48.2
2019-03-27T10:09:43.680Z,48.3
2019-03-27T10:10:34.331Z,48.4
2019-03-27T10:11:27.877Z,48.4
2019-03-27T10:12:13.797Z,48.6
2019-03-27T10:13:04.397Z,48.7
2019-03-27T10:13:53.641Z,48.8
2019-03-27T10:14:48.039Z,48.9
2019-03-27T10:15:33.780Z,49
2019-03-27T10:16:25.027Z,49.1
2019-03-27T10:17:14.502Z,49.3
2019-03-27T10:18:04.210Z,49.4
2019-03-27T10:18:54.875Z,49.4
2019-03-27T10:19:43.799Z,49.5
2019-03-27T10:20:34.954Z,49.7
2019-03-27T10:21:24.472Z,49.8
2019-03-27T10:22:14.504Z,49.8
2019-03-27T10:23:05.241Z,49.9
2019-03-27T10:23:54.922Z,50.1
2019-03-27T10:24:44.491Z,50.2
2019-03-27T10:25:34.740Z,50.3
2019-03-27T10:26:25.186Z,50.4
2019-03-27T10:27:14.949Z,50.5
2019-03-27T10:28:04.519Z,50.5
2019-03-27T10:28:55.277Z,50.6
2019-03-27T10:29:45.672Z,50.8
2019-03-27T10:30:34.609Z,50.9
2019-03-27T10:31:25.709Z,51
2019-03-27T10:32:15.786Z,51.1
2019-03-27T10:33:05.571Z,51.2
2019-03-27T10:33:56.011Z,51.2
2019-03-27T10:34:45.399Z,51.4
2019-03-27T10:35:35.267Z,51.4
2019-03-27T10:36:26.074Z,51.5
2019-03-27T10:37:15.856Z,51.6
2019-03-27T10:38:05.096Z,51.7
2019-03-27T10:38:55.423Z,51.8
2019-03-27T10:39:46.308Z,51.9
2019-03-27T10:41:25.873Z,52
2019-03-27T10:42:16.221Z,52.1
2019-03-27T10:43:06.041Z,52.2
2019-03-27T10:43:56.619Z,52.3
2019-03-27T10:44:46.493Z,52.3
2019-03-27T10:45:36.286Z,52.4
2019-03-27T10:46:26.331Z,52.6
2019-03-27T10:47:16.292Z,52.6
2019-03-27T10:48:06.353Z,52.8
2019-03-27T10:48:58.820Z,52.8
2019-03-27T10:49:47.042Z,52.9
2019-03-27T10:50:37.091Z,53
2019-03-27T10:51:26.678Z,53.1
2019-03-27T10:52:16.665Z,53.2
2019-03-27T10:53:07.265Z,53.3
2019-03-27T10:53:56.815Z,53.3
2019-03-27T10:54:47.122Z,53.4
2019-03-27T10:55:39.286Z,53.5
2019-03-27T10:56:26.967Z,53.6
2019-03-27T10:57:17.622Z,53.6
2019-03-27T10:58:07.652Z,53.8
2019-03-27T10:58:57.706Z,53.8
2019-03-27T10:59:47.509Z,53.9
2019-03-27T11:00:36.979Z,53.9
2019-03-27T11:01:27.910Z,54.1
2019-03-27T11:02:18.035Z,54.1
2019-03-27T11:03:07.502Z,54.2
2019-03-27T11:03:58.139Z,54.3
2019-03-27T11:04:47.847Z,54.4
2019-03-27T11:05:38.189Z,54.4
2019-03-27T11:06:27.965Z,54.5
2019-03-27T11:07:18.046Z,54.6
2019-03-27T11:08:11.887Z,54.6
2019-03-27T11:08:58.161Z,54.8
2019-03-27T11:09:48.227Z,54.8
2019-03-27T11:10:37.984Z,54.9
2019-03-27T11:11:28.066Z,55
2019-03-27T11:12:18.688Z,55
2019-03-27T11:13:08.475Z,55.1
2019-03-27T11:13:57.936Z,55.1
2019-03-27T11:14:48.009Z,55.3
2019-03-27T11:15:38.377Z,55.3
2019-03-27T11:16:27.951Z,55.4
2019-03-27T11:17:17.971Z,55.4
2019-03-27T11:18:08.537Z,55.5
2019-03-27T11:18:58.571Z,55.5
2019-03-27T11:19:48.673Z,55.5
2019-03-27T11:20:38.509Z,55.6
2019-03-27T11:21:29.342Z,55.7
2019-03-27T11:22:19.109Z,55.8
2019-03-27T11:23:09.454Z,55.8
2019-03-27T11:23:58.961Z,55.9
2019-03-27T11:24:49.375Z,55.9
2019-03-27T11:25:39.421Z,56
2019-03-27T11:26:29.463Z,56.1
2019-03-27T11:27:19.730Z,56.1
2019-03-27T11:28:09.346Z,56.2